Time;durP1;ratioP1;P1;durP2;ratioP2;P2;SDS_P1;SDS_P2;PMS_P1;PMS_P2;Temp;Humidity;BMP_temperature;BMP_pressure;BME280_temperature;BME280_humidity;BME280_pressure;Samples;Min_cycle;Max_cycle;Signal;HPM_P1;HPM_P2
2020/12/14 00:01:18;;;;;;;17.23;11.75;;;1.70;99.90;;;;;;5074172;28;20025;-70
2020/12/14 00:03:43;;;;;;;16.42;11.57;;;1.60;99.90;;;;;;5073174;28;20028;-70
2020/12/14 00:06:09;;;;;;;15.65;11.02;;;1.60;99.90;;;;;;5073963;28;20111;-71
2020/12/14 00:08:35;;;;;;;15.00;11.38;;;1.60;99.90;;;;;;5073846;28;20012;-71
2020/12/14 00:11:00;;;;;;;17.20;12.60;;;1.60;99.90;;;;;;5073509;28;20536;-70
2020/12/14 00:13:26;;;;;;;17.92;12.57;;;1.60;99.90;;;;;;5072868;28;20024;-71
2020/12/14 00:15:52;;;;;;;15.77;11.23;;;1.60;99.90;;;;;;5071510;28;20486;-70
2020/12/14 00:18:17;;;;;;;17.65;12.50;;;1.50;99.90;;;;;;5073242;28;20562;-70
2020/12/14 00:20:43;;;;;;;17.92;12.73;;;1.40;99.90;;;;;;5073505;28;20032;-71
2020/12/14 00:23:08;;;;;;;18.83;11.80;;;1.30;99.90;;;;;;5073113;28;20051;-71
2020/12/14 00:25:34;;;;;;;16.63;11.55;;;1.30;99.90;;;;;;5073621;28;20035;-70
2020/12/14 00:28:00;;;;;;;15.48;10.80;;;1.20;99.90;;;;;;5073545;28;20490;-72
2020/12/14 00:30:26;;;;;;;14.85;10.32;;;1.20;99.90;;;;;;5074428;28;20024;-69
2020/12/14 00:32:51;;;;;;;17.35;10.75;;;1.20;99.90;;;;;;5073381;28;20029;-71
2020/12/14 00:35:17;;;;;;;16.10;10.48;;;1.10;99.90;;;;;;5073409;28;20113;-70
2020/12/14 00:37:43;;;;;;;16.77;11.07;;;1.10;99.90;;;;;;5073033;28;20167;-71
2020/12/14 00:40:09;;;;;;;15.52;11.38;;;1.00;99.90;;;;;;5074340;28;20086;-71
2020/12/14 00:42:34;;;;;;;19.33;12.57;;;1.10;99.90;;;;;;5073945;28;20028;-72
2020/12/14 00:45:00;;;;;;;19.88;12.20;;;1.00;99.90;;;;;;5071424;28;20029;-71
2020/12/14 00:47:25;;;;;;;15.88;9.85;;;1.00;99.90;;;;;;5072860;28;20133;-69
2020/12/14 00:49:51;;;;;;;17.55;10.48;;;1.00;99.90;;;;;;5073181;28;20028;-71
2020/12/14 00:52:17;;;;;;;22.00;13.23;;;0.90;99.90;;;;;;5073064;28;20062;-70
2020/12/14 00:54:42;;;;;;;18.70;10.48;;;0.90;99.90;;;;;;5076817;28;20025;-70
2020/12/14 00:57:08;;;;;;;16.52;11.15;;;0.90;99.90;;;;;;5082216;28;20024;-70
2020/12/14 00:59:34;;;;;;;14.82;10.90;;;0.90;99.90;;;;;;5074304;28;20502;-70
2020/12/14 01:01:59;;;;;;;19.92;13.18;;;0.90;99.90;;;;;;5072820;28;20028;-71
2020/12/14 01:04:25;;;;;;;18.23;13.00;;;0.90;99.90;;;;;;5071736;28;20024;-70
2020/12/14 01:06:52;;;;;;;27.65;15.80;;;0.80;99.90;;;;;;5072455;28;20032;-70
2020/12/14 01:09:18;;;;;;;23.33;15.63;;;1.00;99.90;;;;;;5072449;28;20027;-70
2020/12/14 01:11:44;;;;;;;28.27;15.70;;;0.80;99.90;;;;;;5072235;28;20543;-70
2020/12/14 01:14:09;;;;;;;24.92;15.82;;;0.80;99.90;;;;;;5071143;28;20025;-70
2020/12/14 01:16:35;;;;;;;23.00;14.90;;;0.80;99.90;;;;;;5075310;23;20396;-69
2020/12/14 01:19:01;;;;;;;28.67;16.33;;;0.70;99.90;;;;;;5039703;28;20525;-69
2020/12/14 01:21:26;;;;;;;23.63;15.73;;;0.70;99.90;;;;;;5051970;28;20474;-69
2020/12/14 01:23:52;;;;;;;24.15;15.30;;;0.70;99.90;;;;;;5051154;28;20555;-69
2020/12/14 01:26:18;;;;;;;23.77;14.30;;;0.60;99.90;;;;;;5051656;28;20017;-69
2020/12/14 01:28:44;;;;;;;23.50;14.18;;;0.60;99.90;;;;;;5051735;28;20394;-68
2020/12/14 01:31:09;;;;;;;21.70;13.30;;;0.60;99.90;;;;;;5051660;28;20113;-69
2020/12/14 01:33:35;;;;;;;25.95;14.05;;;0.60;99.90;;;;;;5050712;28;20029;-69
2020/12/14 01:36:01;;;;;;;22.27;14.88;;;0.60;99.90;;;;;;5051501;28;20028;-69
2020/12/14 01:38:27;;;;;;;20.83;13.30;;;0.60;99.90;;;;;;5051737;28;20025;-69
2020/12/14 01:40:53;;;;;;;23.33;13.93;;;0.50;99.90;;;;;;5051659;28;20050;-69
2020/12/14 01:43:18;;;;;;;20.67;13.10;;;0.50;99.90;;;;;;5050731;28;20039;-69
2020/12/14 01:45:44;;;;;;;22.20;14.23;;;0.50;99.90;;;;;;5051376;28;20025;-68
2020/12/14 01:48:12;;;;;;;19.40;13.25;;;0.50;99.90;;;;;;5034733;28;20029;-69
2020/12/14 01:50:38;;;;;;;32.90;15.00;;;0.50;99.90;;;;;;5031409;28;20048;-68
2020/12/14 01:53:06;;;;;;;24.75;14.45;;;0.50;99.90;;;;;;5030537;28;20119;-69
2020/12/14 01:55:37;;;;;;;27.67;15.27;;;0.50;99.90;;;;;;5031339;28;20018;-69
2020/12/14 01:58:03;;;;;;;23.55;14.98;;;0.50;99.90;;;;;;5031154;28;20029;-69
2020/12/14 02:00:29;;;;;;;25.58;15.88;;;0.50;99.90;;;;;;5031287;28;20052;-69
2020/12/14 02:02:54;;;;;;;27.85;17.50;;;0.60;99.90;;;;;;5030364;28;20033;-69
2020/12/14 02:05:20;;;;;;;27.02;16.60;;;0.60;99.90;;;;;;5031089;28;20033;-69
2020/12/14 02:07:46;;;;;;;26.60;16.45;;;0.70;99.90;;;;;;5031029;28;20084;-69
2020/12/14 02:10:13;;;;;;;24.67;15.75;;;0.70;99.90;;;;;;5031241;28;20052;-69
2020/12/14 02:12:38;;;;;;;25.00;15.38;;;0.70;99.90;;;;;;5030687;28;20474;-69
2020/12/14 02:15:05;;;;;;;23.00;14.77;;;0.70;99.90;;;;;;5031158;28;20033;-68
2020/12/14 02:17:31;;;;;;;21.33;13.65;;;0.70;99.90;;;;;;5030572;28;20084;-68
2020/12/14 02:19:56;;;;;;;23.10;15.00;;;0.60;99.90;;;;;;5031078;28;20454;-69
2020/12/14 02:22:25;;;;;;;23.77;14.65;;;0.60;99.90;;;;;;5030939;28;20030;-69
2020/12/14 02:24:59;;;;;;;21.90;13.82;;;0.60;99.90;;;;;;5030335;28;20037;-69
2020/12/14 02:27:25;;;;;;;23.27;14.85;;;0.60;99.90;;;;;;5029769;28;20105;-69
2020/12/14 02:29:52;;;;;;;27.23;16.80;;;0.50;99.90;;;;;;5031165;28;20575;-69
2020/12/14 02:32:18;;;;;;;31.23;17.23;;;0.50;99.90;;;;;;5030635;28;20056;-69
2020/12/14 02:34:45;;;;;;;33.95;18.13;;;0.60;99.90;;;;;;5030268;28;20461;-69
2020/12/14 02:37:13;;;;;;;27.77;17.15;;;0.60;99.90;;;;;;5030995;28;20087;-69
2020/12/14 02:39:39;;;;;;;27.13;16.70;;;0.60;99.90;;;;;;5034568;28;20033;-69
2020/12/14 02:42:08;;;;;;;33.33;17.27;;;0.60;99.90;;;;;;5035039;28;20495;-69
2020/12/14 02:44:33;;;;;;;33.63;17.48;;;0.60;99.90;;;;;;5034136;28;20407;-69
2020/12/14 02:46:59;;;;;;;28.52;16.55;;;0.50;99.90;;;;;;5034221;28;20029;-69
2020/12/14 02:49:25;;;;;;;38.63;18.10;;;0.50;99.90;;;;;;5034632;28;20021;-69
2020/12/14 02:51:50;;;;;;;41.17;18.63;;;0.50;99.90;;;;;;5034773;28;20021;-68
2020/12/14 02:54:16;;;;;;;31.98;17.65;;;0.50;99.90;;;;;;5032535;28;20384;-69
2020/12/14 02:56:43;;;;;;;31.42;18.30;;;0.50;99.90;;;;;;5034651;28;20430;-69
2020/12/14 02:59:13;;;;;;;30.20;17.25;;;0.50;99.90;;;;;;5034860;28;20049;-69
2020/12/14 03:01:39;;;;;;;28.52;16.77;;;0.60;99.90;;;;;;5034526;28;20033;-69
2020/12/14 03:04:05;;;;;;;30.67;16.75;;;0.60;99.90;;;;;;5033748;28;20055;-69
2020/12/14 03:06:31;;;;;;;40.42;19.05;;;0.60;99.90;;;;;;5034182;28;20025;-69
2020/12/14 03:08:57;;;;;;;30.23;17.58;;;0.60;99.90;;;;;;5034641;28;20037;-69
2020/12/14 03:11:22;;;;;;;38.05;17.05;;;0.70;99.90;;;;;;5034687;28;20018;-69
2020/12/14 03:13:48;;;;;;;36.08;17.30;;;0.60;99.90;;;;;;5033924;28;20051;-68
2020/12/14 03:16:14;;;;;;;30.80;16.95;;;0.50;99.90;;;;;;5033425;28;20021;-68
2020/12/14 03:18:39;;;;;;;75.75;20.80;;;0.60;99.90;;;;;;5034347;28;20105;-69
2020/12/14 03:21:06;;;;;;;30.67;17.90;;;0.60;99.90;;;;;;5034091;28;20105;-69
2020/12/14 03:23:33;;;;;;;31.08;18.30;;;0.60;99.90;;;;;;5032263;28;20060;-69
2020/12/14 03:25:59;;;;;;;41.85;20.58;;;0.60;99.90;;;;;;5034531;28;20446;-69
2020/12/14 03:28:24;;;;;;;96.85;23.83;;;0.70;99.90;;;;;;5031926;28;20026;-69
2020/12/14 03:30:50;;;;;;;41.33;20.25;;;0.70;99.90;;;;;;5033836;28;20051;-69
2020/12/14 03:33:16;;;;;;;94.57;21.70;;;0.80;99.90;;;;;;5032551;28;20116;-69
2020/12/14 03:35:42;;;;;;;38.67;19.25;;;0.70;99.90;;;;;;5033326;28;20021;-69
2020/12/14 03:38:07;;;;;;;36.58;18.17;;;0.70;99.90;;;;;;5034263;28;20040;-69
2020/12/14 03:40:33;;;;;;;31.25;18.10;;;0.70;99.90;;;;;;5034093;28;20022;-69
2020/12/14 03:42:59;;;;;;;28.90;18.08;;;0.80;99.90;;;;;;5033366;28;20026;-68
2020/12/14 03:45:24;;;;;;;27.30;17.20;;;0.70;99.90;;;;;;5033805;28;20036;-68
2020/12/14 03:47:50;;;;;;;30.75;17.55;;;0.70;99.90;;;;;;5033991;28;20053;-69
2020/12/14 03:50:16;;;;;;;24.80;16.13;;;0.80;99.90;;;;;;5040697;28;20025;-69
2020/12/14 03:52:41;;;;;;;27.05;16.17;;;0.80;99.90;;;;;;5041222;28;20036;-69
2020/12/14 03:55:07;;;;;;;123.55;23.00;;;0.80;99.90;;;;;;5042657;28;20025;-69
2020/12/14 03:57:32;;;;;;;24.88;16.15;;;0.80;99.90;;;;;;5042192;28;20025;-69
2020/12/14 03:59:58;;;;;;;27.30;17.42;;;0.90;99.90;;;;;;5042031;28;20093;-70
2020/12/14 04:02:26;;;;;;;26.85;16.50;;;0.80;99.90;;;;;;5040997;28;20025;-69
2020/12/14 04:04:53;;;;;;;94.15;20.92;;;0.80;99.90;;;;;;5040278;28;20164;-69
2020/12/14 04:07:19;;;;;;;41.05;17.35;;;0.90;99.90;;;;;;5037688;28;20030;-68
2020/12/14 04:09:44;;;;;;;27.90;16.45;;;0.90;99.90;;;;;;5033965;28;20056;-68
2020/12/14 04:12:10;;;;;;;54.75;18.13;;;0.90;99.90;;;;;;5033537;28;20036;-69
2020/12/14 04:14:36;;;;;;;25.83;16.95;;;0.90;99.90;;;;;;5032510;28;20025;-69
2020/12/14 04:17:01;;;;;;;26.80;17.08;;;0.90;99.90;;;;;;5032753;28;20030;-69
2020/12/14 04:19:27;;;;;;;22.27;15.05;;;0.80;99.90;;;;;;5032944;28;20034;-69
2020/12/14 04:21:53;;;;;;;47.10;18.27;;;0.80;99.90;;;;;;5033324;28;20079;-68
2020/12/14 04:24:18;;;;;;;73.35;18.85;;;0.70;99.90;;;;;;5033644;28;20025;-69
2020/12/14 04:26:44;;;;;;;34.50;16.88;;;0.80;99.90;;;;;;5033488;28;20044;-69
2020/12/14 04:29:10;;;;;;;28.15;16.80;;;0.70;99.90;;;;;;5033117;28;20128;-69
2020/12/14 04:31:36;;;;;;;69.57;16.92;;;0.70;99.90;;;;;;5033165;28;20545;-69
2020/12/14 04:34:03;;;;;;;35.45;15.45;;;0.70;99.90;;;;;;5031908;28;20025;-69
2020/12/14 04:36:29;;;;;;;42.25;17.75;;;0.70;99.90;;;;;;5032845;28;20025;-69
2020/12/14 04:38:55;;;;;;;95.30;21.17;;;0.60;99.90;;;;;;5032949;28;20033;-68
2020/12/14 04:41:22;;;;;;;48.67;17.58;;;0.70;99.90;;;;;;5032914;28;20029;-69
2020/12/14 04:43:50;;;;;;;56.60;18.75;;;0.60;99.90;;;;;;5032171;28;20415;-69
2020/12/14 04:46:18;;;;;;;43.88;18.42;;;0.60;99.90;;;;;;5032543;28;20031;-69
2020/12/14 04:48:44;;;;;;;71.07;19.98;;;0.60;99.90;;;;;;5032254;28;20017;-68
2020/12/14 04:51:10;;;;;;;124.72;21.13;;;0.60;99.90;;;;;;5032631;28;20061;-69
2020/12/14 04:53:41;;;;;;;40.03;18.27;;;0.60;99.90;;;;;;5031906;28;20061;-69
2020/12/14 04:56:09;;;;;;;22.50;15.23;;;0.60;99.90;;;;;;5032498;28;20033;-69
2020/12/14 04:58:36;;;;;;;64.25;20.73;;;0.50;99.90;;;;;;5032425;28;20049;-69
2020/12/14 05:01:03;;;;;;;66.22;21.27;;;0.60;99.90;;;;;;5032020;28;20083;-69
2020/12/14 05:03:29;;;;;;;31.70;17.38;;;0.50;99.90;;;;;;5031496;28;20025;-68
2020/12/14 05:05:56;;;;;;;28.90;16.52;;;0.50;99.90;;;;;;5032482;28;20022;-70
2020/12/14 05:08:29;;;;;;;30.17;17.63;;;0.50;99.90;;;;;;5032272;28;20045;-68
2020/12/14 05:10:55;;;;;;;26.58;17.77;;;0.50;99.90;;;;;;5032661;28;20054;-68
2020/12/14 05:13:28;;;;;;;25.63;16.45;;;0.50;99.90;;;;;;5031475;28;20017;-69
2020/12/14 05:15:55;;;;;;;33.33;17.65;;;0.50;99.90;;;;;;5030872;28;20503;-69
2020/12/14 05:18:26;;;;;;;34.13;18.38;;;0.50;99.90;;;;;;5023982;28;20038;-69
2020/12/14 05:21:03;;;;;;;29.08;17.30;;;0.50;99.90;;;;;;5032392;28;20045;-69
2020/12/14 05:23:29;;;;;;;32.75;17.38;;;0.50;99.90;;;;;;5036977;28;20029;-69
2020/12/14 05:26:13;;;;;;;29.45;17.42;;;0.50;99.90;;;;;;5051712;28;20045;-69
2020/12/14 05:28:39;;;;;;;28.88;17.15;;;0.50;99.90;;;;;;5051359;28;20025;-69
2020/12/14 05:31:17;;;;;;;26.25;16.42;;;0.50;99.90;;;;;;5051381;28;20032;-68
2020/12/14 05:33:42;;;;;;;22.75;15.40;;;0.50;99.90;;;;;;5051283;28;20023;-68
2020/12/14 05:36:15;;;;;;;24.15;15.65;;;0.40;99.90;;;;;;5041313;28;20026;-68
2020/12/14 05:38:41;;;;;;;32.72;16.05;;;0.30;99.90;;;;;;5031159;28;20063;-69
2020/12/14 05:41:07;;;;;;;43.85;18.15;;;0.30;99.90;;;;;;5031374;28;20037;-69
2020/12/14 05:43:34;;;;;;;40.30;18.38;;;0.40;99.90;;;;;;5030465;28;20104;-69
2020/12/14 05:46:14;;;;;;;37.45;17.83;;;0.40;99.90;;;;;;5031321;28;20025;-69
2020/12/14 05:48:41;;;;;;;32.17;18.55;;;0.40;99.90;;;;;;5030865;28;20140;-69
2020/12/14 05:51:08;;;;;;;50.20;20.38;;;0.30;99.90;;;;;;5031253;28;20026;-70
2020/12/14 05:53:51;;;;;;;33.50;18.25;;;0.40;99.90;;;;;;5030400;28;20025;-72
2020/12/14 05:56:18;;;;;;;33.33;18.50;;;0.40;99.90;;;;;;5031506;28;20127;-75
2020/12/14 05:58:44;;;;;;;30.70;18.33;;;0.50;99.90;;;;;;5031132;28;20033;-76
2020/12/14 06:01:10;;;;;;;33.75;18.15;;;0.50;99.90;;;;;;5031636;28;20097;-76
2020/12/14 06:03:36;;;;;;;32.67;18.63;;;0.70;99.90;;;;;;5030264;28;20097;-76
2020/12/14 06:06:04;;;;;;;30.98;18.98;;;0.80;99.90;;;;;;5031162;28;20566;-76
2020/12/14 06:08:45;;;;;;;29.73;18.42;;;0.80;99.90;;;;;;5031139;28;20483;-76
2020/12/14 06:11:12;;;;;;;37.47;16.98;;;0.90;99.90;;;;;;5022859;28;20026;-69
2020/12/14 06:13:53;;;;;;;46.88;17.00;;;0.90;99.90;;;;;;5028698;28;20056;-70
2020/12/14 06:16:37;;;;;;;71.03;19.30;;;0.70;99.90;;;;;;5030699;28;20140;-71
2020/12/14 06:19:03;;;;;;;27.88;16.60;;;0.80;99.90;;;;;;5031100;28;20032;-71
2020/12/14 06:21:41;;;;;;;32.33;17.15;;;0.70;99.90;;;;;;5031400;28;20026;-70
2020/12/14 06:24:18;;;;;;;32.20;18.23;;;0.60;99.90;;;;;;5030020;28;20101;-71
2020/12/14 06:26:44;;;;;;;32.92;16.83;;;0.50;99.90;;;;;;5029611;28;20049;-69
2020/12/14 06:29:27;;;;;;;77.00;17.20;;;0.50;99.90;;;;;;5030787;28;20046;-71
2020/12/14 06:31:52;;;;;;;31.27;14.18;;;0.30;99.90;;;;;;5031472;28;20025;-71
2020/12/14 06:34:33;;;;;;;18.92;13.77;;;0.30;99.90;;;;;;5030459;28;20036;-70
2020/12/14 06:37:00;;;;;;;25.02;14.68;;;0.30;99.90;;;;;;5029355;28;20124;-71
2020/12/14 06:39:30;;;;;;;28.25;15.90;;;0.30;99.90;;;;;;5030718;28;20026;-70
2020/12/14 06:42:11;;;;;;;34.00;16.52;;;0.30;99.90;;;;;;5030960;28;20048;-71
2020/12/14 06:45:03;;;;;;;23.98;16.45;;;0.30;99.90;;;;;;5030072;28;20128;-69
2020/12/14 06:47:49;;;;;;;27.83;16.55;;;0.30;99.90;;;;;;5024154;28;20129;-69
2020/12/14 06:50:30;;;;;;;26.63;16.35;;;0.30;99.90;;;;;;5024980;28;20021;-70
2020/12/14 06:53:01;;;;;;;22.63;15.32;;;0.30;99.90;;;;;;5013102;28;20033;-68
2020/12/14 06:55:55;;;;;;;28.48;16.35;;;0.30;99.90;;;;;;5010689;28;20026;-69
2020/12/14 06:58:33;;;;;;;62.45;19.48;;;0.30;99.90;;;;;;5010103;28;20061;-70
2020/12/14 07:01:00;;;;;;;32.15;17.85;;;0.30;99.90;;;;;;5016576;28;20025;-69
2020/12/14 07:03:43;;;;;;;33.97;18.20;;;0.50;99.90;;;;;;5029566;28;20052;-69
2020/12/14 07:06:09;;;;;;;32.03;17.80;;;0.40;99.90;;;;;;5029310;28;20440;-70
2020/12/14 07:08:38;;;;;;;31.55;18.67;;;0.30;99.90;;;;;;5029648;28;20084;-70
2020/12/14 07:11:15;;;;;;;32.92;18.02;;;0.40;99.90;;;;;;5032021;28;20017;-70
2020/12/14 07:13:42;;;;;;;31.83;19.00;;;0.40;99.90;;;;;;5030350;28;20030;-69
2020/12/14 07:16:10;;;;;;;32.08;19.33;;;0.50;99.90;;;;;;5030954;28;20021;-70
2020/12/14 07:18:38;;;;;;;32.50;19.25;;;0.60;99.90;;;;;;5030584;28;20037;-70
2020/12/14 07:21:10;;;;;;;33.25;19.67;;;0.60;99.90;;;;;;5030888;28;20059;-70
2020/12/14 07:23:36;;;;;;;;;;;0.60;99.90;;;;;;5030822;28;20049;-69
2020/12/14 07:26:03;;;;;;;36.83;17.92;;;0.50;99.90;;;;;;5034883;28;19979;-69
2020/12/14 07:28:36;;;;;;;30.98;19.27;;;0.50;99.90;;;;;;5035187;28;20041;-70
2020/12/14 07:31:13;;;;;;;27.52;17.88;;;0.50;99.90;;;;;;5035461;28;20024;-70
2020/12/14 07:33:40;;;;;;;30.30;17.70;;;0.50;99.90;;;;;;5032201;28;20021;-69
2020/12/14 07:36:09;;;;;;;30.70;17.33;;;0.50;99.90;;;;;;5035080;28;20423;-69
2020/12/14 07:38:46;;;;;;;28.85;16.88;;;0.40;99.90;;;;;;5034779;28;20053;-72
2020/12/14 07:41:12;;;;;;;26.95;16.65;;;0.40;99.90;;;;;;5034506;28;20065;-70
2020/12/14 07:43:42;;;;;;;26.80;16.55;;;0.40;99.90;;;;;;5033922;28;20057;-69
2020/12/14 07:46:29;;;;;;;31.08;18.25;;;0.40;99.90;;;;;;5034575;28;20025;-70
2020/12/14 07:49:05;;;;;;;29.50;19.45;;;0.50;99.90;;;;;;5035105;28;20029;-69
2020/12/14 07:51:33;;;;;;;30.35;19.85;;;0.60;99.90;;;;;;5034530;28;20495;-70
2020/12/14 07:54:18;;;;;;;30.08;17.40;;;0.60;99.90;;;;;;5031877;28;20026;-70
2020/12/14 07:57:06;;;;;;;28.15;16.45;;;0.80;99.90;;;;;;5034237;28;20048;-70
2020/12/14 07:59:32;;;;;;;25.58;15.75;;;0.90;99.90;;;;;;5034642;28;20025;-69
2020/12/14 08:01:58;;;;;;;29.70;14.75;;;0.80;99.90;;;;;;5033909;28;20545;-69
2020/12/14 08:04:33;;;;;;;24.50;13.80;;;0.90;99.90;;;;;;5032695;28;20033;-69
2020/12/14 08:07:00;;;;;;;23.90;14.63;;;1.00;99.90;;;;;;5033578;28;20071;-70
2020/12/14 08:09:34;;;;;;;18.48;13.18;;;1.00;99.90;;;;;;5033457;28;20032;-69
2020/12/14 08:12:02;;;;;;;23.85;14.43;;;1.20;99.90;;;;;;5033311;28;20429;-70
2020/12/14 08:14:29;;;;;;;20.02;13.30;;;1.30;99.90;;;;;;5030894;28;20025;-69
2020/12/14 08:16:55;;;;;;;21.42;12.88;;;1.30;99.90;;;;;;5012094;28;20369;-72
2020/12/14 08:19:22;;;;;;;21.95;13.65;;;1.30;99.90;;;;;;5012012;28;20062;-69
2020/12/14 08:22:14;;;;;;;21.48;12.88;;;1.20;99.90;;;;;;5013715;28;20050;-70
2020/12/14 08:24:44;;;;;;;15.55;11.90;;;1.50;99.90;;;;;;5011784;28;20037;-70
2020/12/14 08:27:13;;;;;;;18.77;12.02;;;1.90;99.90;;;;;;5014014;28;20038;-70
2020/12/14 08:30:08;;;;;;;26.83;13.73;;;2.40;99.90;;;;;;5012770;28;20511;-70
2020/12/14 08:32:34;;;;;;;18.70;13.15;;;3.40;99.90;;;;;;5013144;28;20029;-70
2020/12/14 08:35:00;;;;;;;19.13;12.02;;;3.90;99.90;;;;;;5012621;28;20073;-70
2020/12/14 08:37:25;;;;;;;15.70;10.82;;;4.10;99.90;;;;;;5013591;28;20443;-69
2020/12/14 08:40:00;;;;;;;17.65;12.95;;;4.40;99.90;;;;;;5013946;28;20022;-70
2020/12/14 08:42:32;;;;;;;14.60;10.80;;;4.80;99.90;;;;;;5013374;28;20026;-70
2020/12/14 08:45:12;;;;;;;;;;;5.40;99.90;;;;;;5018740;28;20025;-69
2020/12/14 08:47:39;;;;;;;12.60;9.65;;;5.90;99.90;;;;;;5032654;28;19955;-70
2020/12/14 08:50:07;;;;;;;11.75;9.43;;;6.00;99.90;;;;;;5032859;28;20108;-70
2020/12/14 08:52:33;;;;;;;11.32;9.18;;;6.00;99.90;;;;;;5032652;28;20223;-69
2020/12/14 08:54:59;;;;;;;11.57;8.45;;;5.70;99.90;;;;;;5031885;28;20028;-68
2020/12/14 08:57:29;;;;;;;13.55;9.52;;;5.70;99.90;;;;;;5032491;28;20025;-70
2020/12/14 09:00:15;;;;;;;9.77;8.40;;;5.40;99.90;;;;;;5032992;28;20072;-69
2020/12/14 09:02:40;;;;;;;10.43;8.65;;;4.80;99.90;;;;;;5031497;28;20021;-70
2020/12/14 09:05:23;;;;;;;10.90;8.60;;;5.00;99.90;;;;;;5032237;28;20034;-69
2020/12/14 09:07:49;;;;;;;10.88;8.30;;;5.10;99.90;;;;;;5032348;28;20032;-69
2020/12/14 09:10:20;;;;;;;10.10;8.80;;;5.30;99.90;;;;;;5032548;28;20029;-70
2020/12/14 09:12:46;;;;;;;9.98;8.70;;;5.30;99.90;;;;;;5031272;28;20017;-69
2020/12/14 09:15:12;;;;;;;9.57;8.55;;;5.80;99.90;;;;;;5032584;28;20486;-69
2020/12/14 09:17:38;;;;;;;9.02;7.70;;;7.00;99.90;;;;;;5031736;28;20098;-69
2020/12/14 09:20:07;;;;;;;9.50;7.45;;;7.50;99.90;;;;;;5032097;28;20029;-70
2020/12/14 09:22:32;;;;;;;9.50;7.30;;;7.50;99.90;;;;;;5031821;28;20028;-70
2020/12/14 09:24:58;;;;;;;7.30;6.25;;;8.10;99.90;;;;;;5031033;28;20022;-70
2020/12/14 09:27:24;;;;;;;13.32;8.38;;;8.80;99.90;;;;;;5031964;28;20017;-70
2020/12/14 09:29:50;;;;;;;8.65;6.93;;;9.60;99.90;;;;;;5016054;28;20380;-70
2020/12/14 09:32:17;;;;;;;8.52;7.35;;;10.50;99.90;;;;;;5012072;28;20022;-70
2020/12/14 09:34:43;;;;;;;8.30;6.82;;;11.70;99.90;;;;;;5010744;28;20557;-70
2020/12/14 09:37:09;;;;;;;8.07;6.57;;;13.20;99.90;;;;;;5011920;28;20133;-70
2020/12/14 09:39:36;;;;;;;8.48;7.50;;;14.80;98.10;;;;;;5010797;28;20055;-71
2020/12/14 09:42:03;;;;;;;8.00;7.20;;;16.20;92.90;;;;;;5011912;28;20060;-70
2020/12/14 09:44:30;;;;;;;11.13;7.65;;;16.10;91.30;;;;;;5012659;28;20096;-70
2020/12/14 09:46:59;;;;;;;7.85;7.05;;;16.60;89.30;;;;;;5030975;28;20025;-70
2020/12/14 09:49:25;;;;;;;8.77;7.85;;;16.30;86.70;;;;;;5031034;28;20093;-70
2020/12/14 09:51:50;;;;;;;10.40;7.30;;;16.40;84.20;;;;;;5031440;28;20064;-69
2020/12/14 09:54:16;;;;;;;8.32;7.35;;;16.80;82.90;;;;;;5031046;28;20025;-70
2020/12/14 09:56:42;;;;;;;12.57;8.02;;;17.40;80.50;;;;;;5030117;28;20029;-70
2020/12/14 09:59:08;;;;;;;8.02;7.22;;;17.70;78.70;;;;;;5031349;28;20534;-70
2020/12/14 10:01:35;;;;;;;12.20;8.63;;;16.90;78.80;;;;;;5031524;28;20480;-70
2020/12/14 10:04:00;;;;;;;9.07;8.18;;;16.90;81.10;;;;;;5030558;28;20028;-70
2020/12/14 10:06:27;;;;;;;9.23;8.10;;;16.20;82.80;;;;;;5031241;28;20108;-69
2020/12/14 10:08:53;;;;;;;9.68;7.82;;;16.70;84.50;;;;;;5030386;28;20022;-69
2020/12/14 10:11:26;;;;;;;9.18;8.27;;;16.80;81.10;;;;;;5031393;28;20101;-70
2020/12/14 10:13:52;;;;;;;11.18;7.60;;;16.90;82.00;;;;;;5030865;28;20071;-69
2020/12/14 10:16:18;;;;;;;15.02;10.57;;;17.90;79.00;;;;;;5031225;28;20017;-71
2020/12/14 10:18:45;;;;;;;10.93;9.80;;;18.90;73.90;;;;;;5031163;28;20028;-70
2020/12/14 10:21:10;;;;;;;9.90;8.90;;;18.90;73.40;;;;;;5030928;28;20590;-69
2020/12/14 10:23:36;;;;;;;9.95;8.95;;;19.60;71.80;;;;;;5030298;28;20112;-68
2020/12/14 10:26:02;;;;;;;11.80;9.60;;;21.20;69.20;;;;;;5031283;28;20026;-69
2020/12/14 10:28:28;;;;;;;12.05;9.10;;;22.10;62.80;;;;;;5030745;28;20060;-68
2020/12/14 10:30:53;;;;;;;9.57;7.93;;;22.50;62.40;;;;;;5030847;28;20037;-68
2020/12/14 10:33:19;;;;;;;10.10;8.82;;;22.10;61.10;;;;;;5028411;28;20025;-69
2020/12/14 10:35:48;;;;;;;12.00;8.95;;;23.50;59.30;;;;;;5031094;28;20502;-69
2020/12/14 10:38:14;;;;;;;9.02;8.13;;;24.00;57.10;;;;;;5030855;28;20025;-69
2020/12/14 10:40:40;;;;;;;9.75;8.80;;;24.20;55.30;;;;;;5029574;28;20394;-69
2020/12/14 10:43:06;;;;;;;9.13;8.20;;;21.70;59.00;;;;;;5029582;28;20113;-67
2020/12/14 10:45:32;;;;;;;8.98;8.07;;;19.50;62.80;;;;;;5030554;28;20393;-68
2020/12/14 10:47:59;;;;;;;9.63;8.70;;;20.60;60.60;;;;;;5031178;28;20539;-68
2020/12/14 10:50:26;;;;;;;9.27;8.43;;;21.70;59.50;;;;;;5031655;28;20021;-73
2020/12/14 10:52:52;;;;;;;9.52;8.52;;;22.00;58.40;;;;;;5030736;28;20026;-72
2020/12/14 10:55:18;;;;;;;10.50;9.40;;;21.20;59.70;;;;;;5032834;28;20079;-73
2020/12/14 10:57:44;;;;;;;9.98;8.98;;;21.40;60.40;;;;;;5028803;28;20029;-69
2020/12/14 11:00:11;;;;;;;10.65;8.77;;;21.60;59.40;;;;;;5033684;28;20033;-69
2020/12/14 11:02:41;;;;;;;10.20;9.10;;;21.10;58.90;;;;;;5034612;28;20037;-69
2020/12/14 11:05:08;;;;;;;10.18;9.10;;;21.30;60.30;;;;;;5034216;28;20428;-69
2020/12/14 11:07:35;;;;;;;14.50;9.15;;;22.40;57.50;;;;;;5034566;28;20029;-69
2020/12/14 11:10:03;;;;;;;9.88;8.70;;;24.40;55.00;;;;;;5034471;28;20091;-69
2020/12/14 11:12:28;;;;;;;9.98;8.27;;;23.90;54.20;;;;;;5034639;28;20076;-69
2020/12/14 11:14:54;;;;;;;9.23;7.82;;;24.50;54.40;;;;;;5033094;28;20017;-70
2020/12/14 11:17:20;;;;;;;9.40;8.50;;;24.90;52.50;;;;;;5034110;28;20388;-70
2020/12/14 11:19:46;;;;;;;11.40;8.70;;;24.60;53.40;;;;;;5031996;28;20040;-70
2020/12/14 11:22:12;;;;;;;8.23;7.43;;;25.20;52.80;;;;;;5034611;28;20041;-70
2020/12/14 11:24:38;;;;;;;8.85;7.53;;;24.00;53.30;;;;;;5032766;28;20030;-70
2020/12/14 11:27:04;;;;;;;8.20;7.50;;;24.50;53.10;;;;;;5034309;28;20061;-69
2020/12/14 11:29:31;;;;;;;8.65;7.75;;;24.40;52.40;;;;;;5033405;28;20022;-70
2020/12/14 11:31:57;;;;;;;8.38;7.57;;;24.30;52.70;;;;;;5032379;28;20128;-70
2020/12/14 11:34:22;;;;;;;8.80;8.00;;;23.80;52.70;;;;;;5033459;28;20112;-70
2020/12/14 11:36:48;;;;;;;8.77;7.53;;;21.70;56.30;;;;;;5033844;28;20044;-69
2020/12/14 11:39:14;;;;;;;7.85;7.25;;;22.50;56.30;;;;;;5034688;28;20569;-69
2020/12/14 11:41:40;;;;;;;8.93;7.43;;;22.00;56.10;;;;;;5034436;28;20438;-70
2020/12/14 11:44:05;;;;;;;9.10;7.63;;;21.20;57.90;;;;;;5033380;28;20029;-69
2020/12/14 11:46:31;;;;;;;7.72;7.03;;;20.40;58.90;;;;;;5033269;28;20403;-70
2020/12/14 11:48:57;;;;;;;8.10;7.30;;;20.10;60.10;;;;;;5033506;28;20021;-70
2020/12/14 11:51:23;;;;;;;8.00;7.03;;;20.40;60.20;;;;;;5033940;28;20411;-70
2020/12/14 11:53:49;;;;;;;7.35;6.65;;;20.80;59.90;;;;;;5032851;28;20032;-71
2020/12/14 11:56:16;;;;;;;8.10;7.30;;;20.60;59.90;;;;;;5033369;28;20021;-71
2020/12/14 11:58:42;;;;;;;8.38;7.30;;;21.20;58.20;;;;;;5033796;28;20112;-70
2020/12/14 12:01:07;;;;;;;9.70;7.05;;;21.20;60.60;;;;;;5033291;28;20064;-71
2020/12/14 12:03:33;;;;;;;9.85;7.20;;;22.40;56.80;;;;;;5032808;28;20025;-71
2020/12/14 12:05:59;;;;;;;7.97;7.18;;;22.40;56.60;;;;;;5033415;28;20092;-69
2020/12/14 12:08:25;;;;;;;7.60;6.85;;;21.60;58.00;;;;;;5033093;28;20030;-70
2020/12/14 12:10:51;;;;;;;7.28;6.50;;;22.50;57.10;;;;;;5032654;28;20048;-70
2020/12/14 12:13:18;;;;;;;8.30;7.47;;;22.40;56.70;;;;;;5032619;28;20376;-69
2020/12/14 12:15:44;;;;;;;8.88;7.95;;;21.00;58.60;;;;;;5032951;28;20029;-71
2020/12/14 12:18:09;;;;;;;9.02;8.13;;;19.20;63.60;;;;;;5033267;28;20577;-69
2020/12/14 12:20:35;;;;;;;13.75;8.70;;;18.00;65.80;;;;;;5033130;28;20057;-69
2020/12/14 12:23:01;;;;;;;12.65;9.70;;;18.40;66.90;;;;;;5032487;28;20387;-69
2020/12/14 12:25:27;;;;;;;13.32;10.35;;;18.70;65.20;;;;;;5033151;28;20143;-69
2020/12/14 12:27:53;;;;;;;13.93;11.35;;;18.60;66.90;;;;;;5032835;28;20025;-70
2020/12/14 12:30:19;;;;;;;16.52;12.68;;;18.90;66.20;;;;;;5033008;28;20100;-70
2020/12/14 12:32:45;;;;;;;16.83;11.65;;;19.10;65.60;;;;;;5032322;28;20075;-70
2020/12/14 12:35:11;;;;;;;18.60;14.25;;;19.30;65.40;;;;;;5032871;28;20032;-70
2020/12/14 12:37:37;;;;;;;18.50;13.32;;;20.30;63.40;;;;;;5032697;28;20027;-70
2020/12/14 12:40:06;;;;;;;18.88;15.40;;;20.90;61.80;;;;;;5032862;28;20033;-70
2020/12/14 12:42:31;;;;;;;16.67;13.82;;;21.40;60.00;;;;;;5032632;28;20196;-70
2020/12/14 12:44:57;;;;;;;15.32;12.43;;;21.60;59.60;;;;;;5031500;28;20176;-70